Latest Weather Observations for Morawa Airport

IDW60801

Issued at 9:03 pm WST Saturday 25 May 2019 (issued every 10 minutes, with the page automatically refreshed every 10 minutes)

About weather observations | Map of weather stations | Latest weather observations for WA | Other Formats
Station Details ID: 008296 Name: MORAWA AIRPORT Lat: -29.20 Lon: 116.02 Height: 271.4 m
Data from the previous 72 hours. | See also: Recent months at Morawa Airport
Date/Time
WST
Temp
°C
App
Temp
°C
Dew
Point
°C
Rel
Hum
%
Delta-T
°C
Wind Press
QNH
hPa
Press
MSL
hPa
Rain since
9am
mm
Dir  Spd
km/h
Gust
km/h
Spd
kts
Gust
kts
25/09:00pm 15.1 12.5 3.3 45 5.4 SSE 6 9 3 5 1023.5 1023.0 0.0
25/08:30pm 15.7 12.5 3.2 43 5.8 SSE 9 9 5 5 1023.4 1022.8 0.0
25/08:00pm 16.3 13.0 2.7 40 6.2 SSE 9 11 5 6 1023.4 1022.8 0.0
25/07:30pm 16.8 13.8 2.0 37 6.7 SSE 7 9 4 5 1023.1 1022.5 0.0
25/07:00pm 17.6 14.6 2.0 35 7.1 S 7 9 4 5 1022.9 1022.3 0.0
25/06:30pm 18.4 15.4 1.9 33 7.6 S 7 9 4 5 1022.7 1022.1 0.0
25/06:00pm 19.0 15.6 2.0 32 7.8 SSE 9 11 5 6 1022.5 1021.9 0.0
25/05:30pm 20.1 16.7 2.0 30 8.4 SSE 9 11 5 6 1022.0 1021.4 0.0
25/05:00pm 21.4 17.2 1.7 27 9.2 SE 13 17 7 9 1021.7 1021.1 0.0
25/04:30pm 22.5 18.0 2.1 26 9.7 SE 15 19 8 10 1021.7 1021.1 0.0
25/04:00pm 23.2 19.4 1.5 24 10.2 ESE 11 17 6 9 1021.7 1021.1 0.0
25/03:30pm 24.1 19.9 1.7 23 10.7 ESE 13 20 7 11 1021.7 1021.1 0.0
25/03:00pm 23.5 19.4 2.4 25 10.1 ESE 13 20 7 11 1021.6 1021.0 0.0
25/02:30pm 23.4 19.5 3.4 27 9.8 ESE 13 20 7 11 1021.7 1021.1 0.0
25/02:00pm 22.9 19.3 2.9 27 9.7 E 11 17 6 9 1021.9 1021.3 0.0
25/01:30pm 23.0 19.9 3.5 28 9.6 E 9 19 5 10 1022.3 1021.7 0.0
25/01:00pm 22.0 18.6 4.1 31 8.8 E 11 19 6 10 1022.7 1022.1 0.0
25/12:30pm 21.9 17.9 4.9 33 8.5 E 15 22 8 12 1023.0 1022.4 0.0
25/12:00pm 20.9 17.1 5.7 37 7.6 E 15 22 8 12 1023.5 1023.0 0.0
25/11:30am 20.4 16.8 6.7 41 7.0 E 15 20 8 11 1024.1 1023.6 0.0
25/11:00am 19.7 15.8 7.1 44 6.4 E 17 24 9 13 1024.5 1024.0 0.0
25/10:30am 18.2 14.6 8.2 52 5.2 E 17 22 9 12 1024.7 1024.2 0.0
25/10:00am 16.8 13.6 8.5 58 4.3 ESE 15 20 8 11 1025.3 1024.7 0.0
25/09:30am 15.0 11.8 8.5 65 3.3 ESE 15 24 8 13 1025.4 1024.8 0.0
25/09:00am 13.4 10.0 9.1 75 2.2 ESE 17 22 9 12 1025.2 1024.6 0.0
25/08:30am 12.4 9.9 9.6 83 1.4 ESE 13 20 7 11 1024.8 1024.3 0.0
25/08:00am 10.9 9.5 9.7 92 0.6 SE 7 13 4 7 1024.7 1024.2 0.0
25/07:30am 9.8 8.3 9.0 95 0.4 SSE 7 9 4 5 1024.5 1024.0 0.0
25/07:00am 10.1 7.9 9.2 94 0.5 SSE 11 13 6 7 1024.3 1023.8 0.0
25/06:30am 10.0 8.5 9.1 94 0.5 SSE 7 9 4 5 1024.1 1023.6 0.0
25/06:00am 10.1 8.2 9.0 93 0.5 SE 9 11 5 6 1023.9 1023.4 0.0
25/05:30am 10.5 8.7 9.3 92 0.6 SE 9 13 5 7 1023.7 1023.2 0.0
25/05:00am 9.9 8.4 8.5 91 0.7 SE 6 7 3 4 1023.7 1023.2 0.0
25/04:30am 10.2 8.8 8.8 91 0.7 SE 6 11 3 6 1023.5 1023.0 0.0
25/04:00am 10.8 9.3 9.1 89 0.9 SE 7 9 4 5 1023.4 1022.8 0.0
25/03:30am 11.2 9.4 9.5 89 0.9 SE 9 13 5 7 1023.4 1022.8 0.0
25/03:00am 11.6 10.1 9.0 84 1.3 SSE 7 9 4 5 1023.3 1022.7 0.0
25/02:30am 12.3 9.9 8.8 79 1.8 SSE 11 15 6 8 1023.4 1022.8 0.0
25/02:00am 12.4 10.3 8.1 75 2.1 SSE 9 13 5 7 1023.5 1023.0 0.0
25/01:30am 12.9 11.1 7.8 71 2.5 SSE 7 11 4 6 1023.7 1023.2 0.0
25/01:00am 13.2 10.9 7.4 68 2.9 SSE 9 13 5 7 1023.7 1023.2 0.0
25/12:30am 13.6 10.4 6.7 63 3.4 SSE 13 19 7 10 1023.7 1023.2 0.0
25/12:00am 13.4 9.8 5.1 57 3.9 SSE 13 17 7 9 1023.8 1023.3 0.0
 
Date/Time
WST
Temp
°C
App
Temp
°C
Dew
Point
°C
Rel
Hum
%
Delta-T
°C
Wind Press
QNH
hPa
Press
MSL
hPa
Rain since
9am
mm
Dir  Spd
km/h
Gust
km/h
Spd
kts
Gust
kts
24/11:30pm 13.8 10.6 4.9 55 4.2 S 11 13 6 7 1023.9 1023.4 0.0
24/11:00pm 13.7 10.9 5.1 56 4.0 S 9 13 5 7 1023.8 1023.3 0.0
24/10:30pm 14.4 11.7 5.5 55 4.3 SSE 9 13 5 7 1023.7 1023.2 0.0
24/10:00pm 14.1 11.9 5.5 56 4.1 SSE 6 7 3 4 1023.8 1023.3 0.0
24/09:30pm 14.4 12.3 5.7 56 4.2 SSE 6 7 3 4 1023.9 1023.4 0.0
24/09:00pm 15.3 13.2 6.6 56 4.3 SSE 7 9 4 5 1023.9 1023.4 0.0
24/08:30pm 15.3 14.0 6.1 54 4.5 SSE 2 4 1 2 1023.9 1023.4 0.0
24/08:00pm 15.9 13.9 6.3 53 4.7 SSE 6 7 3 4 1023.5 1023.0 0.0
24/07:30pm 17.1 15.1 6.9 51 5.1 SSE 7 9 4 5 1023.5 1023.0 0.0
24/07:00pm 17.5 15.1 7.0 50 5.3 SSE 9 11 5 6 1023.1 1022.5 0.0
24/06:30pm 18.1 16.1 6.9 48 5.7 SSE 7 9 4 5 1022.9 1022.3 0.0
24/06:00pm 19.5 17.1 6.9 44 6.4 SSE 9 11 5 6 1022.6 1022.0 0.0
24/05:30pm 21.2 18.9 7.4 41 7.2 SSE 9 11 5 6 1022.2 1021.6 0.0
24/05:00pm 22.5 19.8 7.5 38 7.9 SSE 11 15 6 8 1022.2 1021.6 0.0
24/04:30pm 23.1 20.4 7.2 36 8.4 SSE 11 17 6 9 1022.0 1021.4 0.0
24/04:00pm 24.0 20.1 7.2 34 8.8 SSE 17 24 9 13 1021.9 1021.3 0.0
24/03:30pm 24.1 21.0 7.3 34 8.9 SSE 13 20 7 11 1022.0 1021.4 0.0
24/03:00pm 24.6 22.0 7.7 34 9.0 SE 11 19 6 10 1022.0 1021.4 0.0
24/02:30pm 24.7 21.7 7.8 34 9.1 SSE 13 22 7 12 1021.7 1021.1 0.0
24/02:00pm 24.4 22.6 8.0 35 8.8 SSE 7 15 4 8 1021.9 1021.3 0.0
24/01:30pm 24.2 22.0 7.8 35 8.8 ESE 9 17 5 9 1022.1 1021.5 0.0
24/01:00pm 23.2 20.6 7.7 37 8.2 ESE 11 17 6 9 1022.6 1022.0 0.0
24/12:30pm 22.8 20.2 7.8 38 8.0 ESE 11 22 6 12 1022.9 1022.3 0.0
24/12:00pm 22.0 18.5 7.4 39 7.6 ESE 15 22 8 12 1023.3 1022.7 0.0
24/11:30am 21.8 18.4 7.6 40 7.5 E 15 20 8 11 1023.6 1023.1 0.0
24/11:00am 21.0 17.6 7.6 42 7.0 ESE 15 22 8 12 1024.0 1023.5 0.0
24/10:30am 20.6 16.4 7.6 43 6.8 SE 19 26 10 14 1024.1 1023.6 0.0
24/10:00am 19.5 16.8 7.3 45 6.3 ESE 11 19 6 10 1024.3 1023.8 0.0
24/09:30am 18.3 16.0 7.4 49 5.6 E 9 11 5 6 1024.6 1024.1 0.0
24/09:00am 17.1 14.9 7.7 54 4.8 SE 9 13 5 7 1024.4 1023.9 0.0
24/08:30am 15.0 13.1 7.5 61 3.8 S 7 9 4 5 1024.3 1023.8 0.0
24/08:00am 13.9 13.3 7.2 64 3.3 CALM 0 6 0 3 1024.1 1023.6 0.0
24/07:30am 12.3 10.8 7.0 70 2.6 SE 4 6 2 3 1023.2 1022.6 0.0
24/07:00am 11.7 9.3 7.0 73 2.3 SSE 9 11 5 6 1023.2 1022.6 0.0
24/06:30am 12.7 10.6 6.7 67 2.9 S 7 9 4 5 1023.2 1022.6 0.0
24/06:00am 12.7 11.5 6.5 66 3.0 S 2 4 1 2 1022.9 1022.3 0.0
24/05:30am 13.6 11.6 6.9 64 3.3 S 7 9 4 5 1022.7 1022.1 0.0
24/05:00am 13.9 12.8 7.0 63 3.4 SSW 2 6 1 3 1022.3 1021.7 0.0
24/04:30am 14.1 13.4 6.9 62 3.5 CALM 0 0 0 0 1022.6 1022.0 0.0
24/04:00am 14.5 13.4 6.8 60 3.8 SSW 2 6 1 3 1022.6 1022.0 0.0
24/03:30am 14.4 12.6 7.0 61 3.7 SSE 6 11 3 6 1022.1 1021.5 0.0
24/03:00am 14.2 11.8 7.0 62 3.5 SSE 9 11 5 6 1022.1 1021.5 0.0
24/02:30am 14.5 13.8 7.1 61 3.7 CALM 0 0 0 0 1023.0 1022.4 0.0
24/02:00am 14.7 12.9 7.0 60 3.8 SSW 6 7 3 4 1023.3 1022.7 0.0
24/01:30am 14.9 13.1 7.2 60 3.8 S 6 9 3 5 1023.2 1022.6 0.0
24/01:00am 14.8 13.4 7.1 60 3.8 SSE 4 6 2 3 1023.3 1022.7 0.0
24/12:30am 14.9 13.8 7.0 59 3.9 S 2 4 1 2 1023.3 1022.7 0.0
24/12:00am 15.1 13.3 7.2 59 3.9 S 6 7 3 4 1023.8 1023.3 0.0
 
Date/Time
WST
Temp
°C
App
Temp
°C
Dew
Point
°C
Rel
Hum
%
Delta-T
°C
Wind Press
QNH
hPa
Press
MSL
hPa
Rain since
9am
mm
Dir  Spd
km/h
Gust
km/h
Spd
kts
Gust
kts
23/11:30pm 15.2 13.4 7.3 59 4.0 SSE 6 7 3 4 1023.8 1023.3 0.0
23/11:00pm 15.2 14.5 7.0 58 4.1 CALM 0 0 0 0 1023.8 1023.3 0.0
23/10:30pm 15.1 13.2 6.9 58 4.1 SSE 6 6 3 3 1023.5 1023.0 0.0
23/10:00pm 15.6 13.8 7.1 57 4.2 SSE 6 6 3 3 1023.8 1023.3 0.0
23/09:30pm 15.9 14.1 7.1 56 4.4 SE 6 7 3 4 1023.9 1023.4 0.0
23/09:00pm 15.9 14.4 6.9 55 4.5 S 4 6 2 3 1024.1 1023.6 0.0
23/08:30pm 16.9 15.0 7.5 54 4.8 SSE 7 9 4 5 1024.2 1023.7 0.0
23/08:00pm 17.1 15.7 7.2 52 5.0 SSE 4 4 2 2 1024.1 1023.6 0.0
23/07:30pm 17.9 15.9 7.3 50 5.4 SSE 7 9 4 5 1024.0 1023.5 0.0
23/07:00pm 17.8 16.0 7.0 49 5.4 SSE 6 7 3 4 1023.8 1023.3 0.0
23/06:30pm 18.7 16.7 7.2 47 5.9 SE 7 9 4 5 1023.4 1022.8 0.0
23/06:00pm 20.1 17.9 7.8 45 6.4 SSE 9 13 5 7 1023.2 1022.6 0.0
23/05:30pm 21.6 18.6 7.8 41 7.3 SSE 13 17 7 9 1023.0 1022.4 0.0
23/05:00pm 22.8 19.7 7.4 37 8.1 SSE 13 20 7 11 1022.9 1022.3 0.0
23/04:30pm 23.8 21.9 7.4 35 8.7 SE 7 11 4 6 1022.7 1022.1 0.0
23/04:00pm 24.1 22.8 7.7 35 8.7 ESE 4 6 2 3 1022.4 1021.8 0.0
23/03:30pm 24.2 23.2 7.4 34 8.9 E 2 9 1 5 1022.5 1021.9 0.0
23/03:00pm 24.2 22.3 7.4 34 8.9 E 7 11 4 6 1022.5 1021.9 0.0
23/02:30pm 24.1 22.4 7.7 35 8.8 ESE 6 11 3 6 1022.3 1021.7 0.0
23/02:00pm 23.8 22.5 7.8 36 8.5 ESE 4 9 2 5 1022.4 1021.8 0.0
23/01:30pm 22.7 21.1 8.0 39 7.8 E 6 7 3 4 1022.6 1022.0 0.0
23/01:00pm 22.0 20.2 7.8 40 7.5 E 7 13 4 7 1022.9 1022.3 0.0
23/12:30pm 21.4 19.2 8.0 42 7.1 ENE 9 13 5 7 1023.5 1023.0 0.0
23/12:00pm 20.6 18.8 7.9 44 6.6 E 7 13 4 7 1023.9 1023.4 0.0
23/11:30am 20.8 19.0 7.8 43 6.8 E 7 11 4 6 1024.4 1023.9 0.0
23/11:00am 20.1 18.0 8.1 46 6.3 ESE 9 19 5 10 1024.9 1024.4 0.0
23/10:30am 19.9 17.0 8.3 47 6.1 SE 13 17 7 9 1025.2 1024.6 0.0
23/10:00am 19.6 17.9 8.3 48 5.9 SSE 7 15 4 8 1025.4 1024.8 0.0
23/09:30am 15.9 14.6 7.7 58 4.2 SSE 4 6 2 3 1025.3 1024.7 0.0
23/09:00am 14.7 12.8 7.5 62 3.6 SE 7 9 4 5 1025.1 1024.5 0.0
23/08:30am 12.9 11.2 7.4 69 2.7 SSE 6 9 3 5 1024.9 1024.4 0.0
23/08:00am 11.0 9.2 7.1 77 1.9 SSW 6 9 3 5 1024.7 1024.2 0.0
23/07:30am 8.9 7.4 6.7 86 1.0 SSW 4 6 2 3 1024.5 1024.0 0.0
23/07:00am 8.4 7.6 6.4 87 0.9 CALM 0 6 0 3 1024.0 1023.5 0.0
23/06:30am 8.4 7.5 6.2 86 1.0 CALM 0 0 0 0 1023.7 1023.2 0.0
23/06:00am 9.3 7.8 6.9 85 1.1 SSW 4 6 2 3 1023.6 1023.1 0.0
23/05:30am 9.3 7.3 6.9 85 1.1 SW 7 9 4 5 1023.3 1022.7 0.0
23/05:00am 8.4 7.6 6.4 87 0.9 CALM 0 0 0 0 1023.2 1022.6 0.0
23/04:30am 8.7 7.8 6.2 84 1.2 CALM 0 0 0 0 1023.1 1022.5 0.0
23/04:00am 8.8 8.0 6.4 85 1.1 CALM 0 0 0 0 1022.9 1022.3 0.0
23/03:30am 10.5 8.7 7.0 79 1.7 SSW 6 7 3 4 1023.1 1022.5 0.0
23/03:00am 9.9 8.1 7.2 83 1.3 WSW 6 7 3 4 1023.0 1022.4 0.0
23/02:30am 9.9 8.0 6.8 81 1.5 WSW 6 7 3 4 1023.3 1022.7 0.0
23/02:00am 10.5 9.8 6.8 78 1.8 CALM 0 2 0 1 1023.3 1022.7 0.0
23/01:30am 11.2 9.4 7.3 77 1.9 SW 6 7 3 4 1023.3 1022.7 0.0
23/01:00am 11.3 9.6 7.6 78 1.8 SW 6 7 3 4 1023.4 1022.8 0.0
23/12:30am 11.1 10.2 7.6 79 1.7 W 2 4 1 2 1023.3 1022.7 0.0
23/12:00am 12.1 10.9 8.0 76 2.0 SSW 4 6 2 3 1023.4 1022.8 0.0
 
Date/Time
WST
Temp
°C
App
Temp
°C
Dew
Point
°C
Rel
Hum
%
Delta-T
°C
Wind Press
QNH
hPa
Press
MSL
hPa
Rain since
9am
mm
Dir  Spd
km/h
Gust
km/h
Spd
kts
Gust
kts
22/11:30pm 12.4 10.8 7.9 74 2.2 S 6 7 3 4 1023.1 1022.5 0.0
22/11:00pm 13.2 11.5 8.5 73 2.4 S 7 9 4 5 1023.1 1022.5 0.0
22/10:30pm 14.1 12.2 8.9 71 2.7 S 9 11 5 6 1023.2 1022.6 0.0
22/10:00pm 15.3 13.3 10.1 71 2.7 SSW 11 15 6 8 1022.7 1022.1 0.0
22/09:30pm 15.6 13.8 11.0 74 2.5 SW 11 17 6 9 1022.5 1021.9 0.0

Other formats

Comma delimited format used in spreadsheet applications
http://www.bom.gov.au/fwo/IDW60801/IDW60801.94417.axf

JavaScript Object Notation format (JSON) in row-major order
http://www.bom.gov.au/fwo/IDW60801/IDW60801.94417.json

Data quality

Most of these data are generated automatically and are frequently updated. Quality checks on data are not normally performed. It is possible for incorrect values to appear. Refer to information at About Latest Weather Observations and please check the disclaimer before using these data.